Time;durP1;ratioP1;P1;durP2;ratioP2;P2;SDS_P1;SDS_P2;PMS_P1;PMS_P2;Temp;Humidity;BMP_temperature;BMP_pressure;BME280_temperature;BME280_humidity;BME280_pressure;Samples;Min_cycle;Max_cycle;Signal;HPM_P1;HPM_P2
2023/06/17 00:01:02;;;;;;;7.53;3.80;;;;;;;17.01;88.79;101531.91;5133310;27;20099;-52
2023/06/17 00:03:30;;;;;;;7.32;3.40;;;;;;;16.95;88.74;101530.59;5133398;27;20067;-51
2023/06/17 00:05:58;;;;;;;8.27;3.83;;;;;;;17.02;89.57;101529.13;5133376;27;20046;-51
2023/06/17 00:08:26;;;;;;;7.82;3.72;;;;;;;16.88;90.42;101530.22;5130434;28;20051;-48
2023/06/17 00:10:54;;;;;;;6.70;3.70;;;;;;;16.87;89.63;101525.03;5129901;27;20101;-52
2023/06/17 00:13:25;;;;;;;5.85;3.45;;;;;;;16.85;90.27;101521.66;5133443;28;20047;-47
2023/06/17 00:15:56;;;;;;;7.63;3.72;;;;;;;16.83;90.86;101518.28;5133328;28;20126;-51
2023/06/17 00:18:26;;;;;;;10.02;3.90;;;;;;;16.75;93.91;101520.72;5133405;28;20047;-51
2023/06/17 00:20:57;;;;;;;7.03;4.00;;;;;;;16.78;93.50;101515.16;5132993;28;20047;-50
2023/06/17 00:23:26;;;;;;;6.90;3.80;;;;;;;16.64;93.73;101517.13;5130258;28;20075;-49
2023/06/17 00:25:54;;;;;;;6.32;3.60;;;;;;;16.64;94.11;101514.47;5129191;28;20035;-53
2023/06/17 00:28:22;;;;;;;7.93;4.05;;;;;;;16.55;95.56;101512.53;5131611;28;20054;-51
2023/06/17 00:30:50;;;;;;;8.13;4.05;;;;;;;16.68;94.47;101502.63;5132723;28;20444;-51
2023/06/17 00:33:18;;;;;;;6.50;3.70;;;;;;;16.59;94.73;101506.00;5132257;28;20076;-51
2023/06/17 00:35:48;;;;;;;8.32;4.25;;;;;;;16.35;96.00;101507.00;5128695;28;20464;-50
2023/06/17 00:38:16;;;;;;;7.38;4.45;;;;;;;16.38;96.53;101504.09;5131356;28;20047;-49
2023/06/17 00:40:45;;;;;;;7.18;3.75;;;;;;;16.27;98.04;101501.47;5133175;28;20100;-51
2023/06/17 00:43:13;;;;;;;8.38;4.10;;;;;;;16.35;97.64;101503.53;5133100;28;20163;-51
2023/06/17 00:45:41;;;;;;;7.30;4.18;;;;;;;16.30;97.94;101501.22;5130169;28;20050;-49
2023/06/17 00:48:11;;;;;;;8.25;4.40;;;;;;;16.34;98.68;101500.00;5130247;28;20050;-48
2023/06/17 00:50:39;;;;;;;6.40;4.03;;;;;;;16.30;98.46;101498.56;5133098;28;20175;-52
2023/06/17 00:53:09;;;;;;;7.05;4.45;;;;;;;16.31;99.80;101504.72;5132685;28;20082;-51
2023/06/17 00:55:39;;;;;;;8.98;5.18;;;;;;;16.14;99.71;101492.78;5132565;28;20044;-50
2023/06/17 00:58:08;;;;;;;8.52;4.28;;;;;;;16.08;99.77;101495.94;5132868;28;20044;-52
2023/06/17 01:00:36;;;;;;;10.70;4.60;;;;;;;16.12;100.00;101486.75;5132836;28;20047;-51
2023/06/17 01:03:05;;;;;;;9.95;4.50;;;;;;;16.06;100.00;101485.44;5132830;28;20039;-51
2023/06/17 01:05:34;;;;;;;7.22;4.20;;;;;;;16.03;100.00;101494.47;5132835;28;20051;-52
2023/06/17 01:08:14;;;;;;;7.60;4.97;;;;;;;16.01;100.00;101495.56;5132780;28;20047;-51
2023/06/17 01:10:49;;;;;;;8.50;4.70;;;;;;;15.93;100.00;101503.28;5129483;28;20069;-51
2023/06/17 01:13:19;;;;;;;10.18;5.20;;;;;;;15.87;100.00;101494.00;5129788;28;20047;-50
2023/06/17 01:15:48;;;;;;;8.88;4.35;;;;;;;15.88;100.00;101493.00;5132587;28;20043;-50
2023/06/17 01:18:19;;;;;;;10.07;5.43;;;;;;;15.78;100.00;101487.53;5132749;28;20059;-50
2023/06/17 01:20:53;;;;;;;8.48;4.80;;;;;;;15.76;100.00;101486.81;5132671;28;20061;-50
2023/06/17 01:23:31;;;;;;;8.75;5.20;;;;;;;15.74;100.00;101488.75;5134841;27;20505;-53
2023/06/17 01:26:02;;;;;;;9.00;5.30;;;;;;;15.71;100.00;101489.81;5136286;27;20039;-51
2023/06/17 01:28:31;;;;;;;7.97;4.50;;;;;;;15.70;100.00;101487.28;5136355;27;20513;-50
2023/06/17 01:30:59;;;;;;;7.75;4.82;;;;;;;15.59;100.00;101485.44;5136051;27;20071;-50
2023/06/17 01:33:27;;;;;;;7.88;5.40;;;;;;;15.53;100.00;101480.63;5114916;27;20057;-52
2023/06/17 01:36:01;;;;;;;7.35;4.60;;;;;;;15.50;100.00;101480.84;5132371;27;20130;-50
2023/06/17 01:38:35;;;;;;;8.55;4.68;;;;;;;15.53;100.00;101475.34;5136117;27;20066;-53
2023/06/17 01:41:09;;;;;;;7.85;5.00;;;;;;;15.59;100.00;101474.84;5117674;27;20070;-50
2023/06/17 01:43:40;;;;;;;8.88;4.75;;;;;;;15.59;100.00;101479.31;5133366;27;20051;-50
2023/06/17 01:46:11;;;;;;;8.35;4.97;;;;;;;15.47;100.00;101475.78;5132962;27;20098;-51
2023/06/17 01:48:40;;;;;;;8.02;5.40;;;;;;;15.52;100.00;101484.25;5135932;27;20043;-52
2023/06/17 01:51:11;;;;;;;10.75;5.82;;;;;;;15.50;100.00;101489.66;5135955;27;20046;-53
2023/06/17 01:53:39;;;;;;;8.32;5.68;;;;;;;15.42;100.00;101489.41;5135660;27;20039;-51
2023/06/17 01:56:09;;;;;;;11.85;6.10;;;;;;;15.32;100.00;101489.22;5135487;27;20043;-48
2023/06/17 01:58:37;;;;;;;9.55;6.45;;;;;;;15.27;100.00;101490.53;5135413;27;20172;-51
2023/06/17 02:01:06;;;;;;;11.32;7.10;;;;;;;15.31;100.00;101484.03;5135236;27;20405;-51
2023/06/17 02:03:35;;;;;;;10.05;6.70;;;;;;;15.26;100.00;101483.56;5114226;27;20058;-50
2023/06/17 02:06:03;;;;;;;11.50;6.70;;;;;;;15.25;100.00;101488.00;5133147;27;20039;-48
2023/06/17 02:08:34;;;;;;;11.30;6.38;;;;;;;15.22;100.00;101496.19;5135635;27;20050;-51
2023/06/17 02:11:02;;;;;;;10.10;6.50;;;;;;;15.18;100.00;101486.78;5135720;27;20566;-52
2023/06/17 02:13:32;;;;;;;13.07;7.15;;;;;;;15.10;100.00;101489.16;5135865;27;20047;-50
2023/06/17 02:16:00;;;;;;;10.60;6.40;;;;;;;15.08;100.00;101483.97;5135401;27;20039;-47
2023/06/17 02:18:28;;;;;;;10.98;6.10;;;;;;;15.10;100.00;101483.84;5135368;27;20084;-50
2023/06/17 02:20:56;;;;;;;11.35;6.90;;;;;;;15.13;100.00;101479.16;5135352;27;20047;-50
2023/06/17 02:23:25;;;;;;;10.60;6.35;;;;;;;15.04;100.00;101485.16;5132750;27;20058;-48
2023/06/17 02:25:54;;;;;;;14.20;7.03;;;;;;;14.97;100.00;101484.75;5131578;27;20051;-49
2023/06/17 02:28:22;;;;;;;11.23;6.78;;;;;;;14.95;100.00;101481.38;5135255;27;20489;-48
2023/06/17 02:30:52;;;;;;;11.07;6.72;;;;;;;15.04;100.00;101479.88;5134914;27;20040;-52
2023/06/17 02:33:23;;;;;;;11.20;7.53;;;;;;;14.91;100.00;101477.25;5134929;27;20035;-49
2023/06/17 02:35:51;;;;;;;10.63;6.32;;;;;;;14.89;100.00;101473.91;5134536;27;20390;-52
2023/06/17 02:38:20;;;;;;;11.57;7.50;;;;;;;14.87;100.00;101475.78;5134919;27;20051;-51
2023/06/17 02:40:48;;;;;;;12.65;7.60;;;;;;;14.86;100.00;101471.44;5134987;27;20039;-52
2023/06/17 02:43:16;;;;;;;10.20;7.00;;;;;;;14.95;100.00;101469.94;5134751;27;20040;-51
2023/06/17 02:45:45;;;;;;;11.65;6.97;;;;;;;14.83;100.00;101467.25;5134882;27;20043;-53
2023/06/17 02:48:15;;;;;;;10.93;7.50;;;;;;;14.71;100.00;101468.13;5134679;27;20051;-49
2023/06/17 02:50:45;;;;;;;10.82;7.45;;;;;;;14.76;100.00;101467.78;5134435;27;20373;-51
2023/06/17 02:53:15;;;;;;;10.25;7.05;;;;;;;14.82;100.00;101464.69;5131004;27;20081;-50
2023/06/17 02:55:46;;;;;;;11.43;7.15;;;;;;;14.78;100.00;101473.81;5130399;27;20081;-47
2023/06/17 02:58:15;;;;;;;11.88;7.38;;;;;;;14.62;100.00;101469.63;5130387;27;20077;-46
2023/06/17 03:00:43;;;;;;;11.88;7.20;;;;;;;14.58;100.00;101469.97;5131409;27;20039;-48
2023/06/17 03:03:11;;;;;;;12.73;7.68;;;;;;;14.59;100.00;101467.19;5133190;27;20088;-51
2023/06/17 03:05:43;;;;;;;10.20;6.35;;;;;;;14.58;100.00;101468.13;5134699;27;20039;-48
2023/06/17 03:08:11;;;;;;;11.73;7.10;;;;;;;14.55;100.00;101465.72;5115947;27;20138;-49
2023/06/17 03:10:41;;;;;;;11.30;7.07;;;;;;;14.49;100.00;101469.66;5132683;27;20042;-50
2023/06/17 03:13:09;;;;;;;12.65;7.40;;;;;;;14.47;100.00;101462.78;5129994;27;20043;-51
2023/06/17 03:15:38;;;;;;;12.77;7.43;;;;;;;14.43;100.00;101464.81;5131090;27;20039;-51
2023/06/17 03:18:07;;;;;;;11.77;7.05;;;;;;;14.47;100.00;101458.31;5130846;27;20129;-52
2023/06/17 03:20:35;;;;;;;10.93;7.25;;;;;;;14.50;100.00;101458.09;5131106;27;20039;-51
2023/06/17 03:23:05;;;;;;;11.30;7.57;;;;;;;14.53;100.00;101460.53;5133544;27;20149;-51
2023/06/17 03:25:33;;;;;;;12.52;8.10;;;;;;;14.43;100.00;101458.66;5134231;27;20118;-51
2023/06/17 03:28:02;;;;;;;11.82;7.82;;;;;;;14.40;100.00;101458.88;5134103;27;20047;-51
2023/06/17 03:30:30;;;;;;;11.57;7.80;;;;;;;14.29;100.00;101460.50;5134274;27;20535;-51
2023/06/17 03:32:59;;;;;;;11.18;7.75;;;;;;;14.35;100.00;101460.03;5133328;27;20445;-52
2023/06/17 03:35:27;;;;;;;10.98;7.55;;;;;;;14.29;100.00;101457.84;5111472;27;20049;-49
2023/06/17 03:37:55;;;;;;;11.85;7.43;;;;;;;14.29;100.00;101460.50;5132444;27;20566;-50
2023/06/17 03:40:25;;;;;;;11.18;7.05;;;;;;;14.33;100.00;101454.03;5133911;27;20081;-50
2023/06/17 03:42:54;;;;;;;10.38;6.90;;;;;;;14.35;100.00;101460.03;5133668;27;20039;-50
2023/06/17 03:45:22;;;;;;;10.23;7.18;;;;;;;14.23;100.00;101460.91;5133333;27;20047;-52
2023/06/17 03:47:51;;;;;;;10.95;6.95;;;;;;;14.24;100.00;101459.97;5133200;27;20047;-51
2023/06/17 03:50:19;;;;;;;9.60;6.65;;;;;;;14.32;100.00;101457.63;5133841;27;20047;-52
2023/06/17 03:52:47;;;;;;;11.18;7.68;;;;;;;14.25;100.00;101450.22;5133538;27;20043;-50
2023/06/17 03:55:18;;;;;;;13.38;8.02;;;;;;;14.19;100.00;101451.50;5130200;27;20043;-48
2023/06/17 03:57:48;;;;;;;12.05;8.13;;;;;;;14.19;100.00;101456.81;5111345;27;20538;-50
2023/06/17 04:00:17;;;;;;;11.82;8.07;;;;;;;14.19;100.00;101452.38;5133790;27;20070;-49
2023/06/17 04:02:46;;;;;;;12.15;7.75;;;;;;;14.16;100.00;101449.09;5133466;27;20458;-51
2023/06/17 04:05:17;;;;;;;15.15;7.70;;;;;;;14.15;100.00;101445.63;5133585;27;20584;-50
2023/06/17 04:07:49;;;;;;;13.10;8.23;;;;;;;14.19;100.00;101457.66;5133178;27;20232;-49
2023/06/17 04:10:17;;;;;;;12.75;8.25;;;;;;;14.26;100.00;101452.78;5115225;28;20084;-49
2023/06/17 04:12:45;;;;;;;11.55;8.45;;;;;;;14.27;100.00;101443.03;5132572;28;20069;-52
2023/06/17 04:15:15;;;;;;;11.35;8.05;;;;;;;14.27;100.00;101448.34;5130295;28;20478;-48
2023/06/17 04:17:43;;;;;;;12.23;8.73;;;;;;;14.23;100.00;101447.69;5131994;28;20046;-49
2023/06/17 04:20:12;;;;;;;11.52;7.57;;;;;;;14.40;100.00;101448.28;5133299;28;20047;-50
2023/06/17 04:22:41;;;;;;;12.30;8.45;;;;;;;14.37;100.00;101449.38;5133494;28;20055;-50
2023/06/17 04:25:11;;;;;;;11.23;8.35;;;;;;;14.36;100.00;101452.97;5133274;28;20050;-49
2023/06/17 04:27:40;;;;;;;16.88;9.18;;;;;;;14.37;100.00;101444.91;5132994;28;20038;-50
2023/06/17 04:30:11;;;;;;;12.13;8.02;;;;;;;14.44;100.00;101445.31;5133078;28;20493;-50
2023/06/17 04:32:42;;;;;;;13.65;8.77;;;;;;;14.40;100.00;101448.28;5133030;28;20118;-50
2023/06/17 04:35:10;;;;;;;14.32;8.75;;;;;;;14.47;100.00;101450.38;5133017;28;20104;-50
2023/06/17 04:37:40;;;;;;;14.32;9.40;;;;;;;14.46;100.00;101453.16;5114394;28;20031;-48
2023/06/17 04:40:11;;;;;;;12.32;8.68;;;;;;;14.52;100.00;101458.84;5133066;28;20058;-51
2023/06/17 04:42:45;;;;;;;13.60;9.30;;;;;;;14.55;100.00;101457.78;5133135;28;20036;-51
2023/06/17 04:45:13;;;;;;;12.45;9.38;;;;;;;14.69;100.00;101457.66;5130614;28;20519;-49
2023/06/17 04:47:43;;;;;;;11.93;9.23;;;;;;;14.72;100.00;101450.44;5129772;28;20670;-49
2023/06/17 04:50:16;;;;;;;12.50;9.13;;;;;;;14.79;100.00;101456.97;5132023;28;20096;-48
2023/06/17 04:52:47;;;;;;;14.60;10.10;;;;;;;14.76;100.00;101458.03;5130184;28;20052;-54
2023/06/17 04:55:18;;;;;;;12.73;9.73;;;;;;;14.88;100.00;101451.84;5128690;28;20046;-49
2023/06/17 04:57:46;;;;;;;15.57;10.45;;;;;;;14.91;100.00;101453.41;5111517;27;20524;-48
2023/06/17 05:00:14;;;;;;;13.77;9.60;;;;;;;14.97;100.00;101452.97;5133847;27;20039;-49
2023/06/17 05:02:45;;;;;;;16.70;10.23;;;;;;;15.01;100.00;101454.44;5136804;27;20398;-52
2023/06/17 05:05:13;;;;;;;14.85;10.55;;;;;;;15.12;100.00;101455.44;5134640;27;20485;-51
2023/06/17 05:07:41;;;;;;;13.10;10.77;;;;;;;15.19;100.00;101459.34;5133924;27;20491;-50
2023/06/17 05:10:10;;;;;;;14.35;11.30;;;;;;;15.24;100.00;101451.84;5132776;27;20082;-51
2023/06/17 05:12:42;;;;;;;13.60;10.63;;;;;;;15.35;100.00;101456.34;5132328;27;20050;-52
2023/06/17 05:15:10;;;;;;;13.88;10.15;;;;;;;15.42;100.00;101454.94;5135895;27;20447;-49
2023/06/17 05:17:38;;;;;;;12.75;10.75;;;;;;;15.56;100.00;101464.50;5133957;27;20035;-50
2023/06/17 05:20:12;;;;;;;13.02;10.23;;;;;;;15.59;100.00;101464.25;5132512;27;20074;-51
2023/06/17 05:22:40;;;;;;;15.15;10.95;;;;;;;15.64;100.00;101467.41;5135692;27;20062;-50
2023/06/17 05:25:09;;;;;;;14.38;10.80;;;;;;;15.72;100.00;101461.50;5133263;27;20049;-51
2023/06/17 05:27:38;;;;;;;13.60;9.93;;;;;;;15.76;100.00;101465.63;5132833;27;20038;-50
2023/06/17 05:30:08;;;;;;;13.98;11.05;;;;;;;15.88;100.00;101466.47;5133116;27;20096;-48
2023/06/17 05:32:36;;;;;;;13.60;10.63;;;;;;;15.97;100.00;101465.75;5133669;27;20112;-49
2023/06/17 05:35:08;;;;;;;13.80;9.73;;;;;;;16.02;100.00;101460.94;5133108;27;20039;-51
2023/06/17 05:37:37;;;;;;;12.95;9.45;;;;;;;16.14;100.00;101468.91;5133522;27;20065;-50
2023/06/17 05:40:07;;;;;;;12.05;9.35;;;;;;;16.24;100.00;101461.91;5133027;27;20042;-54
2023/06/17 05:42:35;;;;;;;12.55;9.32;;;;;;;16.34;100.00;101460.19;5133331;27;20113;-48
2023/06/17 05:45:04;;;;;;;13.10;9.43;;;;;;;16.49;100.00;101458.13;5134110;27;20439;-51
2023/06/17 05:47:35;;;;;;;14.02;9.30;;;;;;;16.59;100.00;101462.69;5133339;27;20356;-52
2023/06/17 05:50:03;;;;;;;14.93;10.05;;;;;;;16.70;100.00;101460.88;5132282;27;20043;-51
2023/06/17 05:52:31;;;;;;;12.05;8.73;;;;;;;16.84;100.00;101457.06;5113823;27;20070;-52
2023/06/17 05:55:01;;;;;;;13.43;9.00;;;;;;;16.99;100.00;101460.31;5132580;27;20051;-54
2023/06/17 05:57:29;;;;;;;16.83;10.52;;;;;;;17.22;100.00;101460.22;5133341;27;20426;-51
2023/06/17 05:59:57;;;;;;;13.55;9.38;;;;;;;17.28;100.00;101462.34;5135691;27;20092;-54
2023/06/17 06:02:25;;;;;;;12.77;9.57;;;;;;;17.38;100.00;101457.97;5135775;27;20447;-49
2023/06/17 06:04:54;;;;;;;11.63;8.75;;;;;;;17.57;100.00;101459.03;5135691;27;20100;-50
2023/06/17 06:07:22;;;;;;;11.75;8.85;;;;;;;17.68;100.00;101460.78;5135531;27;20039;-50
2023/06/17 06:09:50;;;;;;;12.60;8.43;;;;;;;17.92;100.00;101465.00;5133091;27;20402;-53
2023/06/17 06:12:20;;;;;;;10.75;7.50;;;;;;;18.01;100.00;101454.41;5131368;27;20057;-54
2023/06/17 06:14:53;;;;;;;11.18;7.85;;;;;;;18.16;100.00;101457.53;5132724;27;20099;-52
2023/06/17 06:17:21;;;;;;;10.27;7.15;;;;;;;18.23;100.00;101455.19;5132520;27;20095;-50
2023/06/17 06:19:50;;;;;;;10.15;6.65;;;;;;;18.37;100.00;101462.78;5135318;27;20134;-52
2023/06/17 06:22:18;;;;;;;9.25;6.20;;;;;;;18.52;100.00;101459.75;5115167;27;20078;-52
2023/06/17 06:24:47;;;;;;;10.48;6.10;;;;;;;18.61;100.00;101461.59;5113602;27;20312;-51
2023/06/17 06:27:15;;;;;;;10.73;6.00;;;;;;;18.69;100.00;101461.75;5130745;27;20039;-52
2023/06/17 06:29:45;;;;;;;8.85;5.13;;;;;;;18.83;100.00;101459.63;5134676;27;20520;-52
2023/06/17 06:32:13;;;;;;;10.07;5.63;;;;;;;18.94;100.00;101461.34;5134667;27;20498;-52
2023/06/17 06:34:41;;;;;;;7.93;4.43;;;;;;;19.08;99.39;101460.94;5134812;27;20039;-51
2023/06/17 06:37:09;;;;;;;8.25;5.15;;;;;;;19.22;95.11;101457.84;5132479;27;20134;-51
2023/06/17 06:39:37;;;;;;;7.65;4.60;;;;;;;19.36;94.63;101458.38;5131854;27;20043;-53
2023/06/17 06:42:06;;;;;;;8.13;4.72;;;;;;;19.51;90.66;101456.09;5131062;27;20527;-51
2023/06/17 06:44:34;;;;;;;8.38;4.25;;;;;;;19.67;85.29;101456.34;5131675;27;20051;-51
2023/06/17 06:47:04;;;;;;;6.97;3.83;;;;;;;19.80;85.99;101457.88;5132001;27;20043;-52
2023/06/17 06:49:33;;;;;;;8.60;4.70;;;;;;;19.93;84.47;101447.72;5133073;27;20047;-52
2023/06/17 06:52:01;;;;;;;6.65;4.05;;;;;;;20.07;83.97;101449.91;5133890;27;20118;-50
2023/06/17 06:54:30;;;;;;;6.35;3.78;;;;;;;20.25;76.81;101457.97;5134101;27;20086;-51
2023/06/17 06:56:58;;;;;;;9.02;4.28;;;;;;;20.45;77.70;101460.56;5134519;27;20103;-50
2023/06/17 06:59:26;;;;;;;5.97;3.80;;;;;;;20.57;79.70;101459.34;5134591;27;20131;-49
2023/06/17 07:01:54;;;;;;;7.15;4.00;;;;;;;20.71;73.47;101458.00;5134480;27;20039;-50
2023/06/17 07:04:25;;;;;;;8.02;4.13;;;;;;;20.89;67.69;101457.19;5134547;27;20051;-52
2023/06/17 07:06:54;;;;;;;7.22;3.80;;;;;;;21.00;66.28;101456.94;5131555;27;20524;-52
2023/06/17 07:09:22;;;;;;;7.57;4.05;;;;;;;21.11;67.40;101458.53;5130674;27;20053;-52
2023/06/17 07:11:50;;;;;;;8.48;4.25;;;;;;;21.32;72.23;101460.84;5115914;27;20055;-53
2023/06/17 07:14:18;;;;;;;7.45;3.90;;;;;;;21.47;71.74;101462.97;5132577;27;20111;-52
2023/06/17 07:16:47;;;;;;;6.68;3.80;;;;;;;21.75;74.02;101461.03;5131447;27;20047;-51
2023/06/17 07:19:15;;;;;;;7.70;4.13;;;;;;;21.88;71.41;101458.75;5132928;27;20062;-53
2023/06/17 07:21:45;;;;;;;6.45;4.00;;;;;;;22.02;69.79;101465.34;5133940;27;20092;-52
2023/06/17 07:24:13;;;;;;;9.20;4.22;;;;;;;22.24;67.47;101452.38;5134168;27;20047;-51
2023/06/17 07:26:41;;;;;;;6.65;3.80;;;;;;;22.38;65.41;101454.44;5134415;27;20039;-52
2023/06/17 07:29:09;;;;;;;8.00;4.03;;;;;;;22.52;63.50;101454.81;5134128;27;20051;-51
2023/06/17 07:31:37;;;;;;;7.25;3.60;;;;;;;22.72;62.86;101458.06;5134050;27;20051;-52
2023/06/17 07:34:06;;;;;;;7.53;3.80;;;;;;;22.82;60.47;101463.25;5130821;27;20497;-50
2023/06/17 07:36:35;;;;;;;6.65;3.53;;;;;;;22.96;59.37;101459.94;5131342;27;20051;-53
2023/06/17 07:39:05;;;;;;;8.40;3.70;;;;;;;22.99;54.75;101456.03;5134296;27;20043;-54
2023/06/17 07:41:33;;;;;;;6.13;3.58;;;;;;;23.18;56.97;101460.28;5131420;27;20039;-54
2023/06/17 07:44:01;;;;;;;6.10;3.30;;;;;;;23.29;55.40;101449.22;5130452;27;20092;-54
2023/06/17 07:46:31;;;;;;;5.43;3.42;;;;;;;23.50;57.77;101451.34;5130652;27;20160;-50
2023/06/17 07:48:59;;;;;;;7.10;3.60;;;;;;;23.68;54.70;101450.31;5131028;27;20047;-52
2023/06/17 07:51:28;;;;;;;8.60;4.15;;;;;;;23.86;52.91;101448.25;5133745;27;20043;-53
2023/06/17 07:53:56;;;;;;;5.72;3.60;;;;;;;23.98;51.18;101447.91;5133551;27;20047;-52
2023/06/17 07:56:27;;;;;;;5.70;3.55;;;;;;;24.21;52.92;101439.91;5115009;28;20097;-51
2023/06/17 07:58:55;;;;;;;7.00;3.72;;;;;;;24.19;50.26;101442.75;5133623;27;20043;-50
2023/06/17 08:01:24;;;;;;;6.72;3.60;;;;;;;24.30;50.38;101444.22;5133439;27;20055;-52
2023/06/17 08:03:52;;;;;;;6.25;3.40;;;;;;;24.47;47.85;101440.44;5133405;27;20058;-52
2023/06/17 08:06:20;;;;;;;7.55;3.90;;;;;;;24.64;47.48;101448.41;5133488;27;20053;-52
2023/06/17 08:08:48;;;;;;;8.07;3.60;;;;;;;24.77;50.13;101443.28;5133550;27;20039;-53
2023/06/17 08:11:17;;;;;;;6.70;3.70;;;;;;;24.91;47.85;101441.66;5130180;28;20043;-52
2023/06/17 08:13:46;;;;;;;6.35;3.53;;;;;;;25.17;48.54;101443.13;5111900;28;20081;-54
2023/06/17 08:16:14;;;;;;;7.35;4.15;;;;;;;25.32;48.33;101432.41;5133673;28;20065;-49
2023/06/17 08:18:43;;;;;;;5.72;3.75;;;;;;;25.48;46.59;101437.63;5133345;28;20035;-54
2023/06/17 08:21:11;;;;;;;6.95;3.78;;;;;;;25.65;45.13;101434.75;5131239;28;20079;-51
2023/06/17 08:23:40;;;;;;;6.45;3.83;;;;;;;25.54;46.07;101432.53;5130007;28;20139;-52
2023/06/17 08:26:08;;;;;;;9.75;4.05;;;;;;;25.62;46.46;101429.75;5132160;28;20074;-53
2023/06/17 08:28:36;;;;;;;5.90;3.45;;;;;;;25.84;45.34;101429.81;5132913;28;20069;-53
2023/06/17 08:31:06;;;;;;;7.40;3.45;;;;;;;26.19;46.51;101433.63;5129705;28;20090;-53
2023/06/17 08:33:34;;;;;;;7.10;4.10;;;;;;;26.30;44.36;101429.59;5133528;27;20043;-52
2023/06/17 08:36:02;;;;;;;7.00;3.60;;;;;;;26.43;42.14;101424.34;5134422;27;21029;-53
2023/06/17 08:38:30;;;;;;;8.50;3.60;;;;;;;26.61;42.44;101434.72;5136509;27;20061;-50
2023/06/17 08:40:59;;;;;;;7.13;3.92;;;;;;;26.50;41.43;101435.19;5133634;27;20050;-53
2023/06/17 08:43:29;;;;;;;6.65;3.88;;;;;;;26.68;40.35;101428.53;5133504;27;20154;-53
2023/06/17 08:46:04;;;;;;;5.78;3.50;;;;;;;26.88;40.59;101431.44;5132156;27;20046;-54
2023/06/17 08:48:37;;;;;;;7.95;3.70;;;;;;;26.93;39.07;101429.00;5134013;27;20066;-54
2023/06/17 08:51:06;;;;;;;6.28;3.40;;;;;;;27.13;39.76;101429.16;5133715;27;20043;-54
2023/06/17 08:53:37;;;;;;;7.25;4.03;;;;;;;27.07;38.05;101427.25;5132805;27;20114;-52
2023/06/17 08:56:05;;;;;;;7.15;3.80;;;;;;;27.28;40.72;101427.22;5132212;27;20055;-53
2023/06/17 08:58:37;;;;;;;7.93;3.97;;;;;;;27.43;38.74;101426.28;5132820;27;20039;-53
2023/06/17 09:01:06;;;;;;;7.63;3.88;;;;;;;27.67;39.13;101416.88;5132999;27;20528;-53
2023/06/17 09:03:36;;;;;;;6.85;3.50;;;;;;;27.85;38.04;101421.72;5132560;27;20387;-54
2023/06/17 09:06:16;;;;;;;5.50;3.45;;;;;;;28.11;38.57;101412.91;5134097;27;20127;-53
2023/06/17 09:08:44;;;;;;;6.97;3.50;;;;;;;28.24;36.26;101414.84;5134810;27;20385;-52
2023/06/17 09:11:13;;;;;;;7.60;3.95;;;;;;;28.13;35.81;101413.56;5115486;27;20527;-54
2023/06/17 09:13:42;;;;;;;7.00;3.50;;;;;;;28.23;36.08;101406.94;5133688;27;20047;-54
2023/06/17 09:16:11;;;;;;;8.38;3.50;;;;;;;28.42;35.57;101408.84;5135514;27;20121;-53
2023/06/17 09:18:41;;;;;;;7.00;4.00;;;;;;;28.70;35.71;101412.44;5135985;27;20031;-53
2023/06/17 09:21:09;;;;;;;7.45;3.47;;;;;;;29.01;34.75;101403.72;5132273;27;20463;-54
2023/06/17 09:23:37;;;;;;;7.03;3.67;;;;;;;28.70;33.16;101412.44;5134270;27;20509;-53
2023/06/17 09:26:05;;;;;;;6.75;3.25;;;;;;;28.90;33.03;101409.75;5136234;27;20481;-54
2023/06/17 09:28:34;;;;;;;6.47;3.38;;;;;;;29.14;32.56;101413.72;5136406;27;20043;-51
2023/06/17 09:31:04;;;;;;;7.18;3.40;;;;;;;28.99;32.91;101412.03;5136247;27;20043;-52
2023/06/17 09:33:32;;;;;;;8.40;3.42;;;;;;;29.38;32.48;101414.09;5136411;27;20443;-52
2023/06/17 09:36:03;;;;;;;5.03;3.30;;;;;;;29.26;29.50;101419.34;5136004;27;20054;-51
2023/06/17 09:38:32;;;;;;;7.00;3.53;;;;;;;29.26;31.41;101414.78;5135983;27;20122;-53
2023/06/17 09:41:01;;;;;;;7.30;3.60;;;;;;;29.58;30.69;101416.78;5135883;27;20100;-53
2023/06/17 09:43:30;;;;;;;7.40;3.15;;;;;;;29.90;31.54;101416.91;5132287;27;20054;-53
2023/06/17 09:46:00;;;;;;;8.07;3.70;;;;;;;29.67;29.64;101412.78;5132159;27;20055;-56
2023/06/17 09:48:32;;;;;;;5.93;3.30;;;;;;;29.45;31.19;101412.22;5136099;27;20066;-54
2023/06/17 09:51:09;;;;;;;6.00;3.38;;;;;;;29.73;29.87;101409.22;5136258;27;20051;-55
2023/06/17 09:53:37;;;;;;;6.97;3.58;;;;;;;29.95;28.57;101411.66;5136081;27;20058;-53
2023/06/17 09:56:10;;;;;;;11.32;3.90;;;;;;;30.21;28.53;101412.56;5135661;27;20050;-55
2023/06/17 09:58:41;;;;;;;6.30;3.22;;;;;;;30.54;29.40;101412.38;5136216;27;20039;-55
2023/06/17 10:01:13;;;;;;;7.75;3.75;;;;;;;30.79;29.40;101415.13;5135813;27;20042;-54
2023/06/17 10:03:41;;;;;;;6.47;3.40;;;;;;;30.97;28.14;101410.81;5133362;27;20066;-53
2023/06/17 10:06:12;;;;;;;6.07;3.30;;;;;;;31.06;29.36;101409.50;5131193;27;20039;-54
2023/06/17 10:08:43;;;;;;;7.07;3.20;;;;;;;30.87;28.18;101410.47;5131390;27;20048;-55
2023/06/17 10:11:13;;;;;;;7.28;3.40;;;;;;;31.29;28.89;101408.00;5130965;27;20050;-55
2023/06/17 10:13:43;;;;;;;7.72;3.95;;;;;;;30.75;26.78;101407.66;5131712;27;20074;-56
2023/06/17 10:16:14;;;;;;;5.68;3.50;;;;;;;31.12;25.99;101408.59;5114993;27;20393;-56
2023/06/17 10:18:45;;;;;;;5.93;3.28;;;;;;;31.20;28.27;101407.50;5135578;27;20059;-51
2023/06/17 10:21:18;;;;;;;5.65;3.10;;;;;;;31.45;27.91;101403.88;5135444;27;20050;-53
2023/06/17 10:23:46;;;;;;;;;;;;;;;31.62;26.84;101404.13;5135786;27;20047;-53
2023/06/17 10:26:15;;;;;;;5.03;2.92;;;;;;;31.88;27.77;101399.41;5135312;27;20468;-53
2023/06/17 10:28:45;;;;;;;7.03;3.00;;;;;;;31.58;27.27;101400.16;5135177;27;20047;-53
2023/06/17 10:31:27;;;;;;;6.65;3.28;;;;;;;31.72;26.61;101398.19;5135122;27;20054;-53
2023/06/17 10:34:01;;;;;;;9.38;3.17;;;;;;;31.73;26.84;101394.38;5134937;27;20047;-53
2023/06/17 10:36:35;;;;;;;6.93;3.50;;;;;;;31.98;25.71;101397.00;5134797;27;20059;-52
2023/06/17 10:39:10;;;;;;;7.03;3.65;;;;;;;32.03;25.40;101392.53;5135311;27;20043;-53
2023/06/17 10:41:57;;;;;;;6.53;3.28;;;;;;;32.47;25.48;101388.78;5134819;27;20043;-52
2023/06/17 10:44:27;;;;;;;6.43;3.35;;;;;;;32.56;25.02;101381.94;5135143;27;20086;-54
2023/06/17 10:46:57;;;;;;;7.55;3.15;;;;;;;32.61;25.44;101383.97;5133159;27;20506;-54
2023/06/17 10:49:26;;;;;;;4.60;2.92;;;;;;;32.75;24.29;101381.88;5130079;27;20035;-55
2023/06/17 10:51:58;;;;;;;6.65;3.40;;;;;;;32.43;25.75;101376.72;5133613;27;20034;-55
2023/06/17 10:54:31;;;;;;;6.20;3.53;;;;;;;32.64;25.38;101372.59;5134552;27;20427;-52
2023/06/17 10:57:01;;;;;;;7.25;3.17;;;;;;;32.88;26.15;101376.19;5134141;27;20379;-52
2023/06/17 10:59:31;;;;;;;7.40;3.45;;;;;;;33.20;24.69;101373.13;5134479;27;20035;-54
2023/06/17 11:02:01;;;;;;;7.70;3.20;;;;;;;33.09;23.26;101380.22;5134488;27;20035;-54
2023/06/17 11:04:32;;;;;;;;;;;;;;;33.24;24.32;101373.44;5135147;27;20485;-53
2023/06/17 11:07:04;;;;;;;6.90;3.08;;;;;;;33.59;24.30;101370.66;5112055;27;19923;-53
2023/06/17 11:09:34;;;;;;;5.47;3.10;;;;;;;32.90;22.92;101365.06;5130750;27;20054;-54
2023/06/17 11:12:06;;;;;;;6.53;3.67;;;;;;;32.64;23.44;101361.69;5129247;27;20091;-54
2023/06/17 11:14:34;;;;;;;5.15;2.97;;;;;;;33.17;23.81;101358.06;5130476;27;20057;-55
2023/06/17 11:17:03;;;;;;;5.50;3.10;;;;;;;33.26;24.66;101357.72;5130370;27;20050;-55
2023/06/17 11:19:31;;;;;;;6.75;3.00;;;;;;;33.38;22.69;101358.53;5133642;27;20051;-55
2023/06/17 11:22:03;;;;;;;5.28;3.20;;;;;;;33.62;24.37;101358.47;5134227;27;20039;-54
2023/06/17 11:24:32;;;;;;;5.97;2.72;;;;;;;34.01;23.63;101353.22;5134159;27;20054;-55
2023/06/17 11:27:01;;;;;;;6.15;3.17;;;;;;;34.34;23.66;101354.38;5130984;27;20046;-55